Tiempo atmosférico en la estación meteorológica de Fraga, Huesca (170 m.)



Fecha
DESCASC
Temp. máxima en grados centígrados (hora)
DESCASC
Temp. mínima en grados centígrados (hora)
DESCASC
Temp. media en grados centígrados
DESCASC
Racha de viento máxima en m/sg (hora)
DESCASC
Velocidad máxima media en intervalos de 10 minutos(hora)
DESCASC
Precipitaciones diarias en mm
DESCASC
Precipitaciones de 00:00 a 06:00 en mm
DESCASC
Precipitaciones de 06:00 a 12:00 en mm
DESCASC
Precipitaciones de 12:00 a 18:00 en mm
DESCASC
Precipitaciones de 18:00 a 24:00 en mm
DESCASC
13-10-2019 27.9 (16:10) 18.8 (01:50) 23.3 12.22 (19:10) 7.5 (04:00) 0 0 0 0 0
12-10-2019 26.7 (14:10) 18.2 (04:30) 22.5 12.78 (17:10) 7.5 (16:20) 0 0 0 0 0
11-10-2019 27.9 (16:30) 12.2 (07:40) 20 10.83 (20:50) 6.39 (20:20) 0 0 0 0 0
10-10-2019 24.5 (16:40) 14.3 (00:00) 19.4 6.11 (21:30) 3.61 (00:10) 0 0 0 0 0
09-10-2019 26.8 (16:00) 14.4 (00:00) 20.6 7.78 (20:50) 4.72 (20:50) 0 0 0 0 0
08-10-2019 29.4 (17:30) 11.5 (00:00) 20.4 7.5 (19:00) 4.17 (21:40) 0 0 0 0 0
07-10-2019 27.8 (17:50) 14.1 (00:00) 20.9 14.72 (02:40) 9.17 (02:10) 0 0 0 0 0
06-10-2019 26.9 (17:20) 12.6 (00:00) 19.8 13.33 (22:10) 8.61 (22:10) 0 0 0 0 0
05-10-2019 27.9 (17:30) 15.4 (00:00) 21.6 7.78 (02:30) 5 (02:30) 0 0 0 0 0
04-10-2019 29.1 (16:40) 10.9 (00:00) 20 5.83 (17:40) 4.17 (17:40) 0 0 0 0 0
03-10-2019 26.9 (18:20) 13.3 (00:00) 20.1 6.39 (00:10) 3.89 (20:10) 0 0 0 0 0
02-10-2019 25.5 (16:10) 17.2 (00:00) 21.4 16.11 (14:50) 10 (18:20) 0 0 0 0 0
01-10-2019 31.2 (16:50) 14.4 (00:00) 22.8 10.28 (18:50) 6.94 (23:10) 0 0 0 0 0
30-09-2019 31.1 (16:40) 13.1 (00:00) 22.1 8.33 (18:40) 5 (18:00) 0 0 0 0 0
29-09-2019 32 (17:10) 15.4 (00:00) 23.7 5.56 (21:00) 3.33 (01:40) 0 0 0 0 0
28-09-2019 28.8 (16:20) 14 (00:00) 21.4 7.22 (18:50) 5 (19:30) 0 0 0 0 0
27-09-2019 31.6 (17:10) 14.7 (00:00) 23.2 6.11 (21:30) 3.89 (20:50) 0 0 0 0 0
26-09-2019 30 (17:30) 15.4 (00:00) 22.7 9.17 (22:30) 5.56 (22:30) 0 0 0 0 0
25-09-2019 27.3 (16:40) 18.4 (00:00) 22.8 12.22 (15:20) 7.5 (15:20) 0 0 0 0 0
24-09-2019 31.8 (17:30) 12.9 (00:00) 22.3 8.89 (12:40) 5.56 (14:50) 0 0 0 0 0
23-09-2019 27.7 (15:40) 14.2 (00:00) 21 9.72 (15:00) 5 (15:30) 0 0 0 0 0
22-09-2019 29.5 (15:50) 18.5 (00:00) 24 14.17 (16:30) 9.17 (16:50) 0 0 0 0 0
21-09-2019 29.3 (16:40) 18.4 (00:00) 23.8 7.78 (21:20) 5 (10:50) 3.6 0.2 3.4 0 0
20-09-2019 28.8 (15:20) 17.2 (00:00) 23 11.67 (18:00) 7.22 (17:10) 0 0 0 0 0
19-09-2019 31.8 (16:50) 17.7 (00:00) 24.8 10.83 (17:50) 6.67 (17:50) 0 0 0 0 0
18-09-2019 32.2 (16:20) 17.5 (00:00) 24.9 13.06 (18:40) 6.94 (18:40) 0 0 0 0 0
17-09-2019 33.1 (17:20) 17.8 (00:00) 25.4 6.94 (20:10) 4.72 (20:10) 0 0 0 0 0
16-09-2019 31.4 (18:30) 16.5 (00:00) 23.9 5.83 (20:10) 3.61 (21:20) 0 0 0 0 0
15-09-2019 31.2 (15:50) 17.2 (00:00) 24.2 7.5 (15:30) 4.44 (15:30) 0 0 0 0 0

Gráficas

Temp. máximas Temp. mínimas Temp. medias Precipitaciones Rachas de viento máximas Velocidades máximas media en intervalos de 10 minutos

Datos horarios

Fecha y hora oficial Temperatura (ºC) Velocidad del viento (km/h) Dirección del viento Racha (km/h) Dirección de racha Precipitación (mm) Presión (hPa) Tendencia (hPa) Humedad (%)
2019-10-14 23:00:00 18.9 18 Oeste 68 Oeste 0 -- -- 71
2019-10-14 22:00:00 18.9 5 Sur 23 Sur 0 -- -- 80
2019-10-14 21:00:00 18.8 17 Sur 29 Sur 0.2 -- -- 84
2019-10-14 20:00:00 20.4 6 Sudoeste 29 Sudeste 0.2 -- -- 80
2019-10-14 19:00:00 21.5 12 Este 31 Este 0 -- -- 70
2019-10-14 18:00:00 21.8 18 Este 33 Este 0 -- -- 81
2019-10-14 17:00:00 21.4 15 Este 37 Nordeste 1 -- -- 84
2019-10-14 16:00:00 20.3 12 Nordeste 22 Nordeste 1.6 -- -- 86
2019-10-14 15:00:00 22 6 Nordeste 20 Nordeste 0 -- -- 76
2019-10-14 14:00:00 22.5 10 Nordeste 19 Nordeste 0.2 -- -- 74
2019-10-14 13:00:00 21.9 7 Este 22 Este 0.2 -- -- 76
2019-10-14 12:00:00 22.2 11 Este 28 Este 0 -- -- 70
2019-10-14 11:00:00 20.9 16 Nordeste 28 Nordeste 0 -- -- 73
2019-10-14 10:00:00 19.1 17 Nordeste 32 Nordeste 0 -- -- 79
2019-10-14 09:00:00 17.8 21 Nordeste 36 Nordeste 0 -- -- 84
2019-10-14 08:00:00 17.3 22 Nordeste 33 Nordeste 0 -- -- 86
2019-10-14 07:00:00 17.6 23 Nordeste 39 Nordeste 0 -- -- 84
2019-10-14 06:00:00 17.7 29 Nordeste 43 Nordeste 0 -- -- 84
2019-10-14 05:00:00 17.8 25 Nordeste 39 Nordeste 0 -- -- 84
2019-10-14 04:00:00 18.1 25 Nordeste 36 Nordeste 0 -- -- 83
2019-10-14 03:00:00 18.5 24 Nordeste 32 Este 0 -- -- 82
2019-10-14 02:00:00 18.7 20 Nordeste 28 Nordeste 0 -- -- 81
2019-10-14 01:00:00 19.2 13 Nordeste 22 Este 0 -- -- 80
2019-10-14 00:00:00 19.9 13 Nordeste 24 Este 0 -- -- 76
2019-10-13 23:00:00 21.4 13 Este 33 Este 0 -- -- 70
2019-10-13 22:00:00 21.7 14 Sudeste 30 Sudeste 0 -- -- 74
2019-10-13 21:00:00 22.1 16 Sudeste 37 Sudeste 0 -- -- 72
2019-10-13 20:00:00 23 19 Sudeste 44 Sudeste 0 -- -- 68
2019-10-13 19:00:00 24.3 22 Sudeste 40 Sudeste 0 -- -- 62
2019-10-13 18:00:00 25.9 19 Sudeste 42 Sudeste 0 -- -- 56
2019-10-13 17:00:00 27.2 15 Sudeste 31 Sudeste 0 -- -- 53
2019-10-13 16:00:00 27.7 12 Este 27 Este 0 -- -- 49
2019-10-13 15:00:00 27.1 13 Este 27 Este 0 -- -- 51
2019-10-13 14:00:00 26.9 12 Sudeste 31 Sudeste 0 -- -- 53
2019-10-13 13:00:00 26.1 14 Sudeste 29 Sudeste 0 -- -- 56
2019-10-13 12:00:00 25.1 12 Este 25 Nordeste 0 -- -- 62
2019-10-13 11:00:00 22.6 16 Nordeste 28 Nordeste 0 -- -- 70
2019-10-13 10:00:00 20.2 14 Nordeste 30 Nordeste 0 -- -- 76
2019-10-13 09:00:00 19.4 17 Nordeste 28 Nordeste 0 -- -- 79
2019-10-13 08:00:00 19.1 13 Nordeste 26 Este 0 -- -- 80
2019-10-13 07:00:00 18.9 17 Nordeste 32 Nordeste 0 -- -- 81
2019-10-13 06:00:00 18.9 23 Nordeste 32 Nordeste 0 -- -- 80
2019-10-13 05:00:00 18.9 6 Este 33 Nordeste 0 -- -- 80
2019-10-13 04:00:00 18.8 27 Nordeste 35 Nordeste 0 -- -- 80
2019-10-13 03:00:00 19 19 Nordeste 33 Nordeste 0 -- -- 79
2019-10-13 02:00:00 18.9 26 Nordeste 33 Nordeste 0 -- -- 80
2019-10-13 01:00:00 19.3 15 Nordeste 27 Nordeste 0 -- -- 78
2019-10-13 00:00:00 20 14 Nordeste 22 Este 0 -- -- 76
2019-10-12 23:00:00 21.2 12 Este 33 Sudeste 0 -- -- 70
2019-10-12 22:00:00 21.4 12 Este 25 Sudeste 0 -- -- 70
2019-10-12 21:00:00 22 12 Sudeste 34 Sudeste 0 -- -- 67
2019-10-12 20:00:00 22.5 13 Sudeste 33 Este 0 -- -- 66
2019-10-12 19:00:00 23.5 17 Sudeste 33 Sudeste 0 -- -- 63
2019-10-12 18:00:00 24.5 21 Sudeste 46 Sudeste 0 -- -- 60
2019-10-12 17:00:00 26 21 Sudeste 44 Sudeste 0 -- -- 56
2019-10-12 16:00:00 25.5 23 Sudeste 41 Sudeste 0 -- -- 57
2019-10-12 15:00:00 26.6 18 Sudeste 42 Sudeste 0 -- -- 54
2019-10-12 14:00:00 26.4 23 Sudeste 43 Sudeste 0 -- -- 54
2019-10-12 13:00:00 25.8 19 Sudeste 38 Este 0 -- -- 57
2019-10-12 12:00:00 25.3 15 Sudeste 37 Este 0 -- -- 56
2019-10-12 11:00:00 23.8 13 Este 26 Este 0 -- -- 65
2019-10-12 10:00:00 20.8 14 Nordeste 26 Nordeste 0 -- -- 76
2019-10-12 09:00:00 18.8 11 Este 25 Este 0 -- -- 83
2019-10-12 08:00:00 18.4 15 Este 26 Este 0 -- -- 84
2019-10-12 07:00:00 18.3 15 Nordeste 26 Nordeste 0 -- -- 84
2019-10-12 06:00:00 18.2 15 Nordeste 23 Nordeste 0 -- -- 85
2019-10-12 05:00:00 18.3 16 Nordeste 26 Nordeste 0 -- -- 85
2019-10-12 04:00:00 18.4 16 Nordeste 30 Este 0 -- -- 85
2019-10-12 03:00:00 18.6 20 Nordeste 27 Nordeste 0 -- -- 84
2019-10-12 02:00:00 19.4 12 Este 22 Este 0 -- -- 80
2019-10-12 01:00:00 21.1 14 Este 32 Este 0 -- -- 74
2019-10-12 00:00:00 21.3 15 Este 29 Este 0 -- -- 75
2019-10-11 23:00:00 21.5 16 Este 29 Sudeste 0 -- -- 75
2019-10-11 22:00:00 21.6 13 Sudeste 33 Sudeste 0 -- -- 74
2019-10-11 21:00:00 22.1 18 Sudeste 39 Sudeste 0 -- -- 73
2019-10-11 20:00:00 22.8 21 Sudeste 38 Sudeste 0 -- -- 71
2019-10-11 19:00:00 24.4 20 Sudeste 36 Sudeste 0 -- -- 64
2019-10-11 18:00:00 26.2 19 Sudeste 35 Sudeste 0 -- -- 57
2019-10-11 17:00:00 27.8 13 Sudeste 29 Sudeste 0 -- -- 52
2019-10-11 16:00:00 27.6 6 Este 17 Nordeste 0 -- -- 51
2019-10-11 15:00:00 25.7 6 Sudeste 18 Sudeste 0 -- -- 54
2019-10-11 14:00:00 24.8 5 Este 17 Nordeste 0 -- -- 56
2019-10-11 13:00:00 21.9 4 Noroeste 14 Este 0 -- -- 58
2019-10-11 12:00:00 19.6 6 Nordeste 14 Nordeste 0 -- -- 56
2019-10-11 11:00:00 15.7 4 Oeste 8 Oeste 0 -- -- 69
2019-10-11 10:00:00 13.7 3 Oeste 8 Oeste 0 -- -- 75
2019-10-11 09:00:00 12.9 2 Noroeste 8 Noroeste 0 -- -- 79
2019-10-11 08:00:00 12.2 4 Noroeste 12 Noroeste 0 -- -- 77
2019-10-11 07:00:00 12.8 2 Oeste 5 Oeste 0 -- -- 80
2019-10-11 06:00:00 12.6 2 Sudoeste 10 Noroeste 0 -- -- 81
2019-10-11 05:00:00 13 3 Oeste 6 Oeste 0 -- -- 82
2019-10-11 04:00:00 13.7 3 Oeste 11 Nordeste 0 -- -- 81
2019-10-11 03:00:00 15.4 2 Nordeste 12 Nordeste 0 -- -- 78
2019-10-11 02:00:00 15.4 4 Oeste 14 Nordeste 0 -- -- 77
2019-10-11 01:00:00 16.2 12 Nordeste 21 Nordeste 0 -- -- 74
2019-10-11 00:00:00 17.4 5 Este 12 Este 0 -- -- 79
2019-10-10 23:00:00 18 8 Este 16 Sudeste 0 -- -- 78
2019-10-10 22:00:00 18.6 10 Sudeste 22 Sudeste 0 -- -- 74
2019-10-10 21:00:00 19.4 11 Sudeste 19 Sudeste 0 -- -- 66
2019-10-10 20:00:00 20.9 8 Sudeste 14 Sudeste 0 -- -- 52
2019-10-10 19:00:00 22.8 6 Este 14 Este 0 -- -- 44
2019-10-10 18:00:00 24 4 Este 15 Sudeste 0 -- -- 41
2019-10-10 17:00:00 24.4 3 Norte 13 Este 0 -- -- 39
2019-10-10 16:00:00 23.6 7 Sur 14 Sudeste 0 -- -- 41
2019-10-10 15:00:00 22.6 7 Este 16 Nordeste 0 -- -- 43
2019-10-10 14:00:00 21.3 5 Este 12 Nordeste 0 -- -- 46
2019-10-10 13:00:00 19.2 4 Noroeste 9 Sur 0 -- -- 50
2019-10-10 12:00:00 17.6 2 Sudoeste 9 Noroeste 0 -- -- 56
2019-10-10 11:00:00 16.1 6 Oeste 10 Oeste 0 -- -- 64
2019-10-10 10:00:00 14.3 3 Noroeste 9 Oeste 0 -- -- 70
2019-10-10 09:00:00 14.7 0 Calma 5 Sudoeste 0 -- -- 67
2019-10-10 08:00:00 14.5 0 Calma 3 Oeste 0 -- -- 67
2019-10-10 07:00:00 14.4 2 Noroeste 6 Norte 0 -- -- 66
2019-10-10 06:00:00 14.6 3 Noroeste 9 Sudoeste 0 -- -- 65
2019-10-10 05:00:00 14.8 5 Sudoeste 17 Oeste 0 -- -- 63
2019-10-10 04:00:00 15.3 7 Sudoeste 14 Sudoeste 0 -- -- 61
2019-10-10 03:00:00 15.8 7 Sudoeste 18 Sudoeste 0 -- -- 58
2019-10-10 02:00:00 16.2 7 Sudoeste 14 Sudoeste 0 -- -- 57
2019-10-10 01:00:00 16.8 9 Sudoeste 21 Sudoeste 0 -- -- 55
2019-10-10 00:00:00 17.7 8 Sudoeste 16 Sur 0 -- -- 54
2019-10-09 23:00:00 18.5 3 Oeste 21 Oeste 0 -- -- 52
2019-10-09 22:00:00 20 9 Oeste 18 Oeste 0 -- -- 49
2019-10-09 21:00:00 21.3 13 Oeste 28 Oeste 0 -- -- 47
2019-10-09 20:00:00 23 12 Oeste 20 Oeste 0 -- -- 45
2019-10-09 19:00:00 25.4 15 Noroeste 21 Noroeste 0 -- -- 45
2019-10-09 18:00:00 26.1 4 Noroeste 15 Noroeste 0 -- -- 51
2019-10-09 17:00:00 26.8 5 Noroeste 21 Oeste 0 -- -- 50
2019-10-09 16:00:00 26.8 10 Oeste 22 Oeste 0 -- -- 50
2019-10-09 15:00:00 24.5 12 Noroeste 22 Noroeste 0 -- -- 57
2019-10-09 14:00:00 23.2 6 Noroeste 13 Noroeste 0 -- -- 61
2019-10-09 13:00:00 20.8 3 Sur 7 Sudoeste 0 -- -- 70
2019-10-09 12:00:00 19.4 4 Oeste 9 Oeste 0 -- -- 73
2019-10-09 11:00:00 19 5 Sur 11 Este 0 -- -- 71
2019-10-09 10:00:00 16.6 2 Norte 12 Noroeste 0 -- -- 76
2019-10-09 09:00:00 14.6 3 Oeste 12 Oeste 0 -- -- 81
2019-10-09 08:00:00 14.6 2 Sudeste 6 Noroeste 0 -- -- 84
2019-10-09 07:00:00 14.5 0 Calma 6 Noroeste 0 -- -- 82
2019-10-09 06:00:00 15.1 3 Noroeste 14 Noroeste 0 -- -- 83
2019-10-09 05:00:00 15.2 4 Noroeste 11 Noroeste 0 -- -- 83
2019-10-09 04:00:00 16.3 3 Oeste 12 Este 0 -- -- 81
2019-10-09 03:00:00 18.4 10 Este 17 Este 0 -- -- 81
2019-10-09 02:00:00 18.7 0 Calma 17 Este 0 -- -- 76
2019-10-09 01:00:00 19.5 10 Este 18 Nordeste 0 -- -- 77
2019-10-09 00:00:00 21 6 Este 18 Este 0 -- -- 68
2019-10-08 23:00:00 21.2 10 Sudeste 18 Sudeste 0 -- -- 69
2019-10-08 22:00:00 21.9 9 Sudeste 27 Sudeste 0 -- -- 66
2019-10-08 21:00:00 22.9 13 Sudeste 21 Sudeste 0 -- -- 62
2019-10-08 20:00:00 24.2 9 Sudeste 23 Sudeste 0 -- -- 58
2019-10-08 19:00:00 26.5 15 Sudeste 27 Sudeste 0 -- -- 50
2019-10-08 18:00:00 28.9 6 Sudeste 12 Sudeste 0 -- -- 37
2019-10-08 17:00:00 29.1 4 Norte 15 Oeste 0 -- -- 26
2019-10-08 16:00:00 29 5 Oeste 16 Oeste 0 -- -- 24
2019-10-08 15:00:00 27.7 6 Este 18 Sudeste 0 -- -- 25
2019-10-08 14:00:00 26.2 8 Sudeste 17 Sudeste 0 -- -- 26
2019-10-08 13:00:00 24.1 7 Sudeste 22 Oeste 0 -- -- 26
2019-10-08 12:00:00 21.9 4 Este 10 Este 0 -- -- 41
2019-10-08 11:00:00 18.9 4 Sudeste 11 Sudeste 0 -- -- 50
2019-10-08 10:00:00 14.8 0 Calma 5 Oeste 0 -- -- 69
2019-10-08 09:00:00 12 3 Sudoeste 6 Sudoeste 0 -- -- 79
2019-10-08 08:00:00 11.5 0 Calma 5 Sudoeste 0 -- -- 79
2019-10-08 07:00:00 12 3 Norte 4 Sudoeste 0 -- -- 76
2019-10-08 06:00:00 12.6 2 Sudoeste 10 Sudoeste 0 -- -- 75
2019-10-08 05:00:00 14 0 Calma 5 Sudoeste 0 -- -- 69
2019-10-08 04:00:00 14.7 3 Oeste 7 Sur 0 -- -- 66
2019-10-08 03:00:00 16.7 3 Sudeste 6 Oeste 0 -- -- 56
2019-10-08 02:00:00 18.3 3 Sudeste 8 Sudeste 0 -- -- 48
2019-10-08 01:00:00 18.3 3 Sur 10 Este 0 -- -- 53
2019-10-08 00:00:00 19.9 4 Sudeste 14 Sudoeste 0 -- -- 47
2019-10-07 23:00:00 21.3 8 Sudoeste 15 Oeste 0 -- -- 43
2019-10-07 22:00:00 21.8 8 Sur 12 Sudeste 0 -- -- 43
2019-10-07 21:00:00 22.8 2 Sudoeste 8 Sudoeste 0 -- -- 41
2019-10-07 20:00:00 24.5 3 Sudeste 15 Este 0 -- -- 36
2019-10-07 19:00:00 25.5 6 Sudeste 14 Sudeste 0 -- -- 35
2019-10-07 18:00:00 27.7 6 Sudoeste 17 Oeste 0 -- -- 30
2019-10-07 17:00:00 25.8 8 Noroeste 21 Noroeste 0 -- -- 33
2019-10-07 16:00:00 24.3 13 Noroeste 26 Noroeste 0 -- -- 36
2019-10-07 15:00:00 23.8 17 Noroeste 29 Noroeste 0 -- -- 36
2019-10-07 14:00:00 22.8 14 Noroeste 26 Noroeste 0 -- -- 39
2019-10-07 13:00:00 21 13 Noroeste 20 Noroeste 0 -- -- 44
2019-10-07 12:00:00 19.5 8 Noroeste 30 Noroeste 0 -- -- 49
2019-10-07 11:00:00 18.7 5 Oeste 14 Noroeste 0 -- -- 52
2019-10-07 10:00:00 16.7 6 Oeste 13 Oeste 0 -- -- 57
2019-10-07 09:00:00 14.7 7 Sudoeste 19 Sudoeste 0 -- -- 64
2019-10-07 08:00:00 14.2 12 Sudoeste 18 Sudoeste 0 -- -- 63
2019-10-07 07:00:00 14.9 9 Sudoeste 21 Oeste 0 -- -- 57
2019-10-07 06:00:00 15.6 9 Oeste 24 Oeste 0 -- -- 53
2019-10-07 05:00:00 16.3 16 Noroeste 37 Oeste 0 -- -- 51
2019-10-07 04:00:00 17 24 Noroeste 47 Oeste 0 -- -- 49
2019-10-07 03:00:00 17.8 29 Noroeste 53 Oeste 0 -- -- 48
2019-10-07 02:00:00 18.5 29 Oeste 52 Oeste 0 -- -- 49
2019-10-07 01:00:00 19 20 Oeste 39 Oeste 0 -- -- 48
2019-10-07 00:00:00 19.8 25 Oeste 43 Oeste 0 -- -- 45
2019-10-06 23:00:00 20.3 17 Sudoeste 48 Oeste 0 -- -- 45
2019-10-06 22:00:00 21.3 24 Oeste 38 Oeste 0 -- -- 47
2019-10-06 21:00:00 22.2 24 Oeste 40 Oeste 0 -- -- 46
2019-10-06 20:00:00 23 17 Noroeste 42 Noroeste 0 -- -- 45
2019-10-06 19:00:00 24.8 22 Oeste 44 Oeste 0 -- -- 41
2019-10-06 18:00:00 26.3 9 Noroeste 26 Oeste 0 -- -- 40
2019-10-06 17:00:00 26.7 4 Oeste 13 Noroeste 0 -- -- 38
2019-10-06 16:00:00 23.6 9 Noroeste 18 Noroeste 0 -- -- 44
2019-10-06 15:00:00 22.9 7 Noroeste 30 Oeste 0 -- -- 48
2019-10-06 14:00:00 24 14 Oeste 28 Oeste 0 -- -- 42
2019-10-06 13:00:00 22.1 11 Sudoeste 24 Oeste 0 -- -- 48
2019-10-06 12:00:00 20.3 11 Oeste 21 Oeste 0 -- -- 56
2019-10-06 11:00:00 18.8 10 Oeste 17 Oeste 0 -- -- 62
2019-10-06 10:00:00 15.9 5 Oeste 10 Oeste 0 -- -- 74
2019-10-06 09:00:00 13.4 3 Noroeste 8 Sudoeste 0 -- -- 81
2019-10-06 08:00:00 12.6 2 Oeste 7 Sur 0 -- -- 83
2019-10-06 07:00:00 13.5 4 Sur 9 Sur 0 -- -- 80
2019-10-06 06:00:00 13.8 4 Sudoeste 7 Sur 0 -- -- 80
2019-10-06 05:00:00 13.5 2 Sudoeste 6 Oeste 0 -- -- 86
2019-10-06 04:00:00 14.2 3 Noroeste 9 Oeste 0 -- -- 85
2019-10-06 03:00:00 16.3 2 Sudoeste 5 Sur 0 -- -- 79
2019-10-06 02:00:00 16.5 5 Oeste 15 Este 0 -- -- 76
2019-10-06 01:00:00 18.8 9 Este 16 Este 0 -- -- 73
2019-10-06 00:00:00 19.3 5 Este 16 Sudeste 0 -- -- 67
2019-10-05 23:00:00 20.5 11 Sudeste 19 Sudeste 0 -- -- 65
2019-10-05 22:00:00 21 12 Sudeste 22 Sudeste 0 -- -- 62
2019-10-05 21:00:00 22.4 10 Sudeste 21 Sudeste 0 -- -- 57
2019-10-05 20:00:00 23.3 6 Nordeste 16 Nordeste 0 -- -- 48
2019-10-05 19:00:00 26.1 13 Nordeste 17 Nordeste 0 -- -- 41
2019-10-05 18:00:00 27.4 5 Este 9 Este 0 -- -- 37
2019-10-05 17:00:00 27 6 Noroeste 13 Oeste 0 -- -- 38
2019-10-05 16:00:00 26.8 8 Nordeste 15 Noroeste 0 -- -- 38
2019-10-05 15:00:00 25.5 9 Oeste 17 Oeste 0 -- -- 42
2019-10-05 14:00:00 24.5 5 Norte 15 Oeste 0 -- -- 45
2019-10-05 13:00:00 22.6 6 Oeste 14 Noroeste 0 -- -- 51
2019-10-05 12:00:00 21.2 6 Noroeste 17 Oeste 0 -- -- 55
2019-10-05 11:00:00 19.8 6 Oeste 15 Oeste 0 -- -- 59
2019-10-05 10:00:00 17.9 4 Sur 13 Oeste 0 -- -- 68
2019-10-05 09:00:00 16 5 Oeste 17 Oeste 0 -- -- 75
2019-10-05 08:00:00 15.5 8 Sudoeste 17 Oeste 0 -- -- 77
2019-10-05 07:00:00 15.7 9 Noroeste 16 Oeste 0 -- -- 75
2019-10-05 06:00:00 16.2 6 Oeste 24 Sudoeste 0 -- -- 72
2019-10-05 05:00:00 16.9 10 Sudoeste 21 Sudoeste 0 -- -- 69
2019-10-05 04:00:00 17.7 15 Sudoeste 22 Sudoeste 0 -- -- 67
2019-10-05 03:00:00 18.6 11 Oeste 28 Sudoeste 0 -- -- 63
2019-10-05 02:00:00 19.6 7 Oeste 26 Sudoeste 0 -- -- 61
2019-10-05 01:00:00 22.1 13 Oeste 21 Oeste 0 -- -- 52
2019-10-05 00:00:00 21.9 12 Noroeste 19 Noroeste 0 -- -- 55
2019-10-04 23:00:00 23.1 14 Noroeste 21 Noroeste 0 -- -- 50
2019-10-04 22:00:00 22.8 5 Noroeste 9 Noroeste 0 -- -- 52
2019-10-04 21:00:00 23.6 4 Sur 12 Sur 0 -- -- 50
2019-10-04 20:00:00 25.6 0 Calma 8 Sudeste 0 -- -- 46
2019-10-04 19:00:00 28.2 0 Calma 14 Nordeste 0 -- -- 40
2019-10-04 18:00:00 28.2 11 Nordeste 21 Nordeste 0 -- -- 40
2019-10-04 17:00:00 29.1 4 Nordeste 14 Nordeste 0 -- -- 38
2019-10-04 16:00:00 28 7 Este 18 Nordeste 0 -- -- 39
2019-10-04 15:00:00 26.3 5 Sudeste 10 Sudeste 0 -- -- 41
2019-10-04 14:00:00 24.2 4 Noroeste 15 Noroeste 0 -- -- 43
2019-10-04 13:00:00 22.3 4 Oeste 13 Noroeste 0 -- -- 47
2019-10-04 12:00:00 20.7 4 Nordeste 9 Este 0 -- -- 47
2019-10-04 11:00:00 16.6 2 Nordeste 6 Oeste 0 -- -- 59
2019-10-04 10:00:00 13.3 0 Calma 12 Sur 0 -- -- 71
2019-10-04 09:00:00 11.5 4 Sudoeste 11 Sur 0 -- -- 76
2019-10-04 08:00:00 11.3 3 Nordeste 4 Nordeste 0 -- -- 76
2019-10-04 07:00:00 11.1 0 Calma 7 Noroeste 0 -- -- 76
2019-10-04 06:00:00 11.6 6 Noroeste 12 Noroeste 0 -- -- 71
2019-10-04 05:00:00 13.2 0 Calma 8 Noroeste 0 -- -- 62
2019-10-04 04:00:00 14 6 Noroeste 10 Noroeste 0 -- -- 60
2019-10-04 03:00:00 15.3 4 Sudoeste 14 Oeste 0 -- -- 52
2019-10-04 02:00:00 16.5 8 Sudoeste 18 Sudoeste 0 -- -- 50
2019-10-04 01:00:00 17.5 6 Sur 10 Sur 0 -- -- 45
2019-10-04 00:00:00 18.2 3 Sur 9 Sur 0 -- -- 46
2019-10-03 23:00:00 19.4 5 Oeste 12 Oeste 0 -- -- 47
2019-10-03 22:00:00 19.6 4 Sur 14 Norte 0 -- -- 47
2019-10-03 21:00:00 20.8 2 Noroeste 18 Este 0 -- -- 45
2019-10-03 20:00:00 22.8 14 Este 18 Este 0 -- -- 40
2019-10-03 19:00:00 25.6 8 Este 14 Este 0 -- -- 35
2019-10-03 18:00:00 26.8 6 Nordeste 12 Nordeste 0 -- -- 33
2019-10-03 17:00:00 26 8 Noroeste 19 Noroeste 0 -- -- 32
2019-10-03 16:00:00 24.6 6 Noroeste 21 Noroeste 0 -- -- 37
2019-10-03 15:00:00 23.9 6 Sudoeste 17 Sudoeste 0 -- -- 41
2019-10-03 14:00:00 22 8 Oeste 17 Oeste 0 -- -- 45
2019-10-03 13:00:00 20.7 13 Oeste 21 Oeste 0 -- -- 50
2019-10-03 12:00:00 18.9 6 Noroeste 21 Oeste 0 -- -- 57
2019-10-03 11:00:00 17.4 12 Oeste 21 Oeste 0 -- -- 62
2019-10-03 10:00:00 15 4 Oeste 13 Sudoeste 0 -- -- 72
2019-10-03 09:00:00 13.6 10 Sudoeste 17 Sudoeste 0 -- -- 77
2019-10-03 08:00:00 13.4 4 Sur 9 Sudoeste 0 -- -- 78
2019-10-03 07:00:00 13.6 6 Sudoeste 14 Sudoeste 0 -- -- 76
2019-10-03 06:00:00 13.9 10 Sudoeste 19 Sudoeste 0 -- -- 74
2019-10-03 05:00:00 14.4 7 Sudoeste 20 Sudoeste 0 -- -- 71
2019-10-03 04:00:00 14.8 6 Sur 11 Sur 0 -- -- 68
2019-10-03 03:00:00 15.2 7 Sudoeste 22 Sudoeste 0 -- -- 68
2019-10-03 02:00:00 15.8 9 Sudoeste 21 Sudoeste 0 -- -- 66
2019-10-03 01:00:00 16.4 9 Sudoeste 23 Sudoeste 0 -- -- 65
2019-10-03 00:00:00 17.2 8 Oeste 26 Oeste 0 -- -- 62
2019-10-02 23:00:00 18.2 8 Oeste 30 Sudoeste 0 -- -- 59
2019-10-02 22:00:00 19.1 12 Oeste 34 Noroeste 0 -- -- 55
2019-10-02 21:00:00 20.1 22 Oeste 43 Oeste 0 -- -- 51
2019-10-02 20:00:00 21.4 25 Oeste 48 Oeste 0 -- -- 49
2019-10-02 19:00:00 23 30 Noroeste 55 Oeste 0 -- -- 45
2019-10-02 18:00:00 24.6 33 Oeste 52 Oeste 0 -- -- 41
2019-10-02 17:00:00 25.1 36 Oeste 53 Oeste 0 -- -- 40
2019-10-02 16:00:00 25.4 33 Noroeste 52 Oeste 0 -- -- 39
2019-10-02 15:00:00 25.4 34 Oeste 58 Oeste 0 -- -- 40
2019-10-02 14:00:00 24.1 29 Noroeste 50 Oeste 0 -- -- 44
2019-10-02 13:00:00 22.6 30 Noroeste 48 Noroeste 0 -- -- 48
2019-10-02 12:00:00 21.2 30 Noroeste 51 Noroeste 0 -- -- 51
2019-10-02 11:00:00 20.1 28 Noroeste 57 Noroeste 0 -- -- 54
2019-10-02 10:00:00 19.2 25 Oeste 54 Oeste 0 -- -- 55
2019-10-02 09:00:00 17.9 17 Oeste 34 Noroeste 0 -- -- 57
2019-10-02 08:00:00 17.8 24 Oeste 40 Oeste 0 -- -- 56
2019-10-02 07:00:00 18.3 18 Noroeste 42 Oeste 0 -- -- 55
2019-10-02 06:00:00 19.1 24 Oeste 40 Sudoeste 0 -- -- 52
2019-10-02 05:00:00 18.2 18 Oeste 32 Oeste 0 -- -- 60
2019-10-02 04:00:00 18.8 13 Sudoeste 25 Oeste 0 -- -- 61
2019-10-02 03:00:00 19.9 13 Oeste 26 Oeste 0 -- -- 55
2019-10-02 02:00:00 20.9 15 Oeste 31 Noroeste 0 -- -- 50
2019-10-02 01:00:00 21.2 19 Noroeste 30 Noroeste 0 -- -- 49
2019-10-02 00:00:00 22.4 19 Noroeste 32 Noroeste 0 -- -- 48
2019-10-01 23:00:00 23.8 23 Noroeste 31 Noroeste 0 -- -- 45
2019-10-01 22:00:00 24.4 21 Noroeste 33 Oeste 0 -- -- 46
2019-10-01 21:00:00 26 21 Noroeste 33 Noroeste 0 -- -- 45
2019-10-01 20:00:00 26.9 15 Noroeste 29 Noroeste 0 -- -- 42
2019-10-01 19:00:00 28.9 23 Noroeste 37 Noroeste 0 -- -- 39
2019-10-01 18:00:00 30.1 9 Noroeste 18 Noroeste 0 -- -- 41
2019-10-01 17:00:00 31 5 Noroeste 11 Noroeste 0 -- -- 37
2019-10-01 16:00:00 30.1 4 Norte 13 Oeste 0 -- -- 40
2019-10-01 15:00:00 27.9 4 Oeste 14 Oeste 0 -- -- 50
2019-10-01 14:00:00 26.3 4 Sudeste 12 Oeste 0 -- -- 55
2019-10-01 13:00:00 24 3 Sudoeste 8 Este 0 -- -- 65
2019-10-01 12:00:00 21.4 4 Oeste 13 Oeste 0 -- -- 76
2019-10-01 11:00:00 19 5 Oeste 10 Oeste 0 -- -- 80
2019-10-01 10:00:00 16.6 3 Noroeste 9 Oeste 0 -- -- 89
2019-10-01 09:00:00 15.3 0 Calma 3 Oeste 0 -- -- 94
2019-10-01 08:00:00 14.7 0 Calma 7 Oeste 0 -- -- 93
2019-10-01 07:00:00 15.2 3 Noroeste 8 Oeste 0 -- -- 91
2019-10-01 06:00:00 16.1 0 Calma 4 Oeste 0 -- -- 90
2019-10-01 05:00:00 16.6 2 Oeste 4 Oeste 0 -- -- 89
2019-10-01 04:00:00 17.9 2 Sudeste 5 Norte 0 -- -- 86
2019-10-01 03:00:00 18.9 4 Nordeste 9 Nordeste 0 -- -- 85
2019-10-01 02:00:00 19.4 0 Calma 9 Sudeste 0 -- -- 83
2019-10-01 01:00:00 21 4 Sudeste 19 Sudeste 0 -- -- 81
2019-10-01 00:00:00 21.4 10 Este 27 Sudeste 0 -- -- 80
2019-09-30 23:00:00 22 13 Sudeste 26 Sudeste 0 -- -- 77
2019-09-30 22:00:00 22.7 18 Sudeste 28 Sudeste 0 -- -- 74
2019-09-30 21:00:00 23.7 14 Sudeste 27 Sudeste 0 -- -- 67
2019-09-30 20:00:00 24.9 18 Sudeste 27 Sudeste 0 -- -- 62
2019-09-30 19:00:00 27.2 10 Sudeste 30 Este 0 -- -- 55
2019-09-30 18:00:00 29.6 18 Sudeste 29 Sudeste 0 -- -- 46
2019-09-30 17:00:00 30.7 10 Sudeste 18 Sudeste 0 -- -- 33
2019-09-30 16:00:00 30.4 7 Sur 12 Sur 0 -- -- 33
2019-09-30 15:00:00 29.5 5 Sur 11 Sudoeste 0 -- -- 35
2019-09-30 14:00:00 27.7 4 Sur 10 Sur 0 -- -- 39
2019-09-30 13:00:00 25.6 5 Oeste 9 Oeste 0 -- -- 42
2019-09-30 12:00:00 23.1 2 Sur 8 Oeste 0 -- -- 49
2019-09-30 11:00:00 20.3 2 Sudeste 4 Nordeste 0 -- -- 59
2019-09-30 10:00:00 16.9 0 Calma 4 Nordeste 0 -- -- 71
2019-09-30 09:00:00 13.9 0 Calma 4 Noroeste 0 -- -- 85
2019-09-30 08:00:00 13.6 0 Calma 4 Oeste 0 -- -- 84
2019-09-30 07:00:00 13.8 0 Calma 6 Oeste 0 -- -- 83
2019-09-30 06:00:00 14.5 2 Noroeste 3 Noroeste 0 -- -- 81
2019-09-30 05:00:00 15.4 2 Oeste 8 Noroeste 0 -- -- 80
2019-09-30 04:00:00 16 5 Noroeste 9 Oeste 0 -- -- 78
2019-09-30 03:00:00 17.1 2 Norte 5 Oeste 0 -- -- 74
2019-09-30 02:00:00 17.8 0 Calma 9 Noroeste 0 -- -- 72
2019-09-30 01:00:00 19.2 3 Noroeste 5 Noroeste 0 -- -- 67
2019-09-30 00:00:00 20.3 2 Noroeste 6 Noroeste 0 -- -- 61
2019-09-29 23:00:00 22.6 0 Calma 4 Sudeste 0 -- -- 54
2019-09-29 22:00:00 23.9 3 Sudeste 18 Sur 0 -- -- 50
2019-09-29 21:00:00 25.6 6 Este 20 Sur 0 -- -- 47
2019-09-29 20:00:00 28.2 2 Nordeste 10 Sudeste 0 -- -- 39
2019-09-29 19:00:00 31 6 Nordeste 10 Nordeste 0 -- -- 34
2019-09-29 18:00:00 31.6 5 Norte 14 Noroeste 0 -- -- 31
2019-09-29 17:00:00 31.9 7 Oeste 15 Sur 0 -- -- 31
2019-09-29 16:00:00 30.3 6 Sudoeste 15 Noroeste 0 -- -- 38
2019-09-29 15:00:00 28.8 3 Sur 15 Noroeste 0 -- -- 42
2019-09-29 14:00:00 26.3 4 Noroeste 13 Noroeste 0 -- -- 59
2019-09-29 13:00:00 23.9 6 Noroeste 12 Noroeste 0 -- -- 67
2019-09-29 12:00:00 21.2 4 Oeste 8 Oeste 0 -- -- 76
2019-09-29 11:00:00 19.3 4 Oeste 8 Noroeste 0 -- -- 78
2019-09-29 10:00:00 17.5 0 Calma 4 Noroeste 0 -- -- 82
2019-09-29 09:00:00 16.1 2 Oeste 12 Oeste 0 -- -- 86
2019-09-29 08:00:00 15.5 2 Oeste 9 Oeste 0 -- -- 90
2019-09-29 07:00:00 15.4 2 Noroeste 4 Noroeste 0 -- -- 91
2019-09-29 06:00:00 15.8 4 Oeste 8 Noroeste 0 -- -- 90
2019-09-29 05:00:00 16.5 3 Oeste 9 Oeste 0 -- -- 90
2019-09-29 04:00:00 18.2 4 Sudoeste 12 Sudeste 0 -- -- 85
2019-09-29 03:00:00 18.4 3 Norte 11 Este 0 -- -- 85
2019-09-29 02:00:00 19.1 9 Nordeste 17 Nordeste 0 -- -- 82
2019-09-29 01:00:00 20.8 6 Este 14 Este 0 -- -- 80
2019-09-29 00:00:00 21.3 10 Sudeste 23 Sudeste 0 -- -- 80
2019-09-28 23:00:00 21.7 8 Sudeste 24 Sudeste 0 -- -- 78
2019-09-28 22:00:00 22.3 15 Sudeste 24 Sudeste 0 -- -- 75
2019-09-28 21:00:00 23 13 Sudeste 24 Sudeste 0 -- -- 72
2019-09-28 20:00:00 24.2 12 Sudeste 26 Sudeste 0 -- -- 66
2019-09-28 19:00:00 26 14 Sudeste 26 Sudeste 0 -- -- 58
2019-09-28 18:00:00 27.5 16 Sudeste 24 Sudeste 0 -- -- 52
2019-09-28 17:00:00 28.4 9 Sudeste 26 Sudeste 0 -- -- 48
2019-09-28 16:00:00 28.5 8 Sudeste 18 Sudoeste 0 -- -- 46
2019-09-28 15:00:00 27.6 6 Sudoeste 18 Sudeste 0 -- -- 44
2019-09-28 14:00:00 26.5 6 Sudeste 16 Sudeste 0 -- -- 46
2019-09-28 13:00:00 24.6 5 Sudoeste 12 Sudoeste 0 -- -- 51
2019-09-28 12:00:00 22.8 4 Sudoeste 11 Sudoeste 0 -- -- 54
2019-09-28 11:00:00 20.9 4 Sudeste 7 Sudeste 0 -- -- 58
2019-09-28 10:00:00 17.1 0 Calma 5 Oeste 0 -- -- 71
2019-09-28 09:00:00 15.1 0 Calma 5 Oeste 0 -- -- 81
2019-09-28 08:00:00 14.1 4 Oeste 6 Oeste 0 -- -- 81
2019-09-28 07:00:00 16.2 0 Calma 8 Noroeste 0 -- -- 78
2019-09-28 06:00:00 16.2 0 Calma 3 Oeste 0 -- -- 80
2019-09-28 05:00:00 16.4 3 Noroeste 8 Noroeste 0 -- -- 79
2019-09-28 04:00:00 16.9 4 Noroeste 8 Oeste 0 -- -- 80
2019-09-28 03:00:00 18.2 2 Sudoeste 11 Este 0 -- -- 80
2019-09-28 02:00:00 19.4 0 Calma 6 Oeste 0 -- -- 82
2019-09-28 01:00:00 20.6 3 Nordeste 4 Este 0 -- -- 81
2019-09-28 00:00:00 21.9 4 Sudoeste 13 Sudeste 0 -- -- 73
2019-09-27 23:00:00 23.5 9 Sudeste 18 Sudeste 0 -- -- 76
2019-09-27 22:00:00 24.1 11 Sudeste 22 Sudeste 0 -- -- 74
2019-09-27 21:00:00 25.6 12 Sudeste 22 Este 0 -- -- 65
2019-09-27 20:00:00 27.7 7 Nordeste 15 Norte 0 -- -- 44
2019-09-27 19:00:00 30.2 10 Nordeste 17 Nordeste 0 -- -- 39
2019-09-27 18:00:00 31.2 5 Sudeste 13 Sudeste 0 -- -- 35
2019-09-27 17:00:00 31.2 4 Sur 13 Sudoeste 0 -- -- 37
2019-09-27 16:00:00 30 5 Norte 16 Noroeste 0 -- -- 40
2019-09-27 15:00:00 28.8 7 Norte 17 Noroeste 0 -- -- 43
2019-09-27 14:00:00 27.7 4 Norte 13 Noroeste 0 -- -- 52
2019-09-27 13:00:00 24.9 5 Norte 14 Noroeste 0 -- -- 62
2019-09-27 12:00:00 23.1 5 Oeste 10 Norte 0 -- -- 68
2019-09-27 11:00:00 20.2 4 Oeste 9 Sur 0 -- -- 68
2019-09-27 10:00:00 17.5 2 Oeste 5 Noroeste 0 -- -- 79
2019-09-27 09:00:00 15.4 2 Oeste 9 Noroeste 0 -- -- 85
2019-09-27 08:00:00 14.7 0 Calma 8 Noroeste 0 -- -- 87
2019-09-27 07:00:00 15.4 0 Calma 3 Oeste 0 -- -- 85
2019-09-27 06:00:00 15.7 2 Sudoeste 7 Noroeste 0 -- -- 86
2019-09-27 05:00:00 16.1 0 Calma 5 Noroeste 0 -- -- 85
2019-09-27 04:00:00 17.6 4 Oeste 6 Oeste 0 -- -- 81
2019-09-27 03:00:00 18.9 0 Calma 8 Sudeste 0 -- -- 76
2019-09-27 02:00:00 19.8 7 Nordeste 17 Este 0 -- -- 73
2019-09-27 01:00:00 21.5 4 Sudeste 15 Sudeste 0 -- -- 71
2019-09-27 00:00:00 22.3 12 Sudeste 22 Sudeste 0 -- -- 72
2019-09-26 23:00:00 22.7 13 Sudeste 33 Sudeste 0 -- -- 70
2019-09-26 22:00:00 23.3 15 Sudeste 24 Sudeste 0 -- -- 63
2019-09-26 21:00:00 24.6 12 Sudeste 20 Este 0 -- -- 58
2019-09-26 20:00:00 26.3 9 Este 13 Este 0 -- -- 43
2019-09-26 19:00:00 28.6 9 Nordeste 17 Nordeste 0 -- -- 37
2019-09-26 18:00:00 29.8 10 Nordeste 17 Este 0 -- -- 36
2019-09-26 17:00:00 29.4 3 Sudeste 17 Nordeste 0 -- -- 36
2019-09-26 16:00:00 28.7 5 Noroeste 12 Oeste 0 -- -- 37
2019-09-26 15:00:00 27.8 3 Este 17 Este 0 -- -- 38
2019-09-26 14:00:00 26.7 6 Noroeste 17 Nordeste 0 -- -- 43
2019-09-26 13:00:00 25.2 7 Este 15 Este 0 -- -- 46
2019-09-26 12:00:00 23.9 5 Este 8 Nordeste 0 -- -- 48
2019-09-26 11:00:00 21.4 2 Este 5 Nordeste 0 -- -- 53
2019-09-26 10:00:00 19 2 Oeste 4 Sur 0 -- -- 61
2019-09-26 09:00:00 16.6 0 Calma 4 Sudoeste 0 -- -- 66
2019-09-26 08:00:00 15.5 3 Sudoeste 4 Sudoeste 0 -- -- 68
2019-09-26 07:00:00 16.6 0 Calma 6 Sudoeste 0 -- -- 63
2019-09-26 06:00:00 17.4 5 Sudoeste 13 Sudoeste 0 -- -- 61
2019-09-26 05:00:00 17.4 2 Sudoeste 10 Sudoeste 0 -- -- 61
2019-09-26 04:00:00 17.7 4 Sudoeste 9 Sudoeste 0 -- -- 59
2019-09-26 03:00:00 18.5 6 Sudoeste 11 Sudoeste 0 -- -- 56
2019-09-26 02:00:00 19.1 8 Sudoeste 19 Sudoeste 0 -- -- 55
2019-09-26 01:00:00 19.6 11 Sur 20 Oeste 0 -- -- 52
2019-09-26 00:00:00 21.1 13 Sudoeste 23 Oeste 0 -- -- 48
2019-09-25 23:00:00 20.9 5 Sudoeste 14 Sudoeste 0 -- -- 48
2019-09-25 22:00:00 21.6 4 Sudoeste 11 Oeste 0 -- -- 47
2019-09-25 21:00:00 22.4 4 Oeste 12 Oeste 0 -- -- 44
2019-09-25 20:00:00 23.5 8 Oeste 27 Oeste 0 -- -- 42
2019-09-25 19:00:00 25.5 16 Oeste 31 Oeste 0 -- -- 38
2019-09-25 18:00:00 26.6 18 Oeste 35 Oeste 0 -- -- 34
2019-09-25 17:00:00 26.9 21 Oeste 43 Oeste 0 -- -- 33
2019-09-25 16:00:00 26.8 23 Oeste 44 Oeste 0 -- -- 34
2019-09-25 15:00:00 26.6 18 Oeste 40 Oeste 0 -- -- 35
2019-09-25 14:00:00 26.4 18 Oeste 36 Oeste 0 -- -- 37
2019-09-25 13:00:00 25.4 17 Oeste 39 Oeste 0 -- -- 38
2019-09-25 12:00:00 23.9 16 Oeste 37 Sudoeste 0 -- -- 46
2019-09-25 11:00:00 21.2 18 Oeste 29 Oeste 0 -- -- 55
2019-09-25 10:00:00 19.2 12 Sudoeste 24 Sur 0 -- -- 63
2019-09-25 09:00:00 18.6 7 Sudoeste 19 Noroeste 0 -- -- 66
2019-09-25 08:00:00 18.7 8 Noroeste 21 Noroeste 0 -- -- 67
2019-09-25 07:00:00 19.5 4 Noroeste 19 Noroeste 0 -- -- 67
2019-09-25 06:00:00 20.5 12 Noroeste 21 Noroeste 0 -- -- 66
2019-09-25 05:00:00 22.2 10 Noroeste 20 Oeste 0 -- -- 59
2019-09-25 04:00:00 23 6 Noroeste 14 Noroeste 0 -- -- 54
2019-09-25 03:00:00 23.4 5 Oeste 14 Oeste 0 -- -- 53
2019-09-25 02:00:00 23.4 0 Calma 6 Oeste 0 -- -- 52
2019-09-25 01:00:00 23.7 3 Norte 10 Sudoeste 0 -- -- 51
2019-09-25 00:00:00 24.4 5 Sudoeste 8 Sudoeste 0 -- -- 48
2019-09-24 23:00:00 25.1 6 Sudoeste 10 Sudoeste 0 -- -- 47
2019-09-24 22:00:00 26.1 4 Oeste 13 Sudoeste 0 -- -- 44
2019-09-24 21:00:00 26.6 6 Sur 30 Noroeste 0 -- -- 43
2019-09-24 20:00:00 28.1 16 Noroeste 21 Noroeste 0 -- -- 38
2019-09-24 19:00:00 30.2 12 Noroeste 18 Nordeste 0 -- -- 33
2019-09-24 18:00:00 30.7 11 Noroeste 22 Noroeste 0 -- -- 32
2019-09-24 17:00:00 31.5 7 Norte 22 Norte 0 -- -- 30
2019-09-24 16:00:00 31.3 10 Nordeste 29 Oeste 0 -- -- 31
2019-09-24 15:00:00 30.7 17 Oeste 30 Oeste 0 -- -- 29
2019-09-24 14:00:00 29.8 12 Sudoeste 30 Oeste 0 -- -- 32
2019-09-24 13:00:00 27.8 12 Oeste 32 Oeste 0 -- -- 35
2019-09-24 12:00:00 23.6 3 Noroeste 8 Oeste 0 -- -- 46
2019-09-24 11:00:00 20.1 2 Oeste 6 Sudeste 0 -- -- 55
2019-09-24 10:00:00 16.7 2 Oeste 4 Sudoeste 0 -- -- 71
2019-09-24 09:00:00 14.7 0 Calma 4 Noroeste 0 -- -- 74
2019-09-24 08:00:00 13 2 Noroeste 4 Norte 0 -- -- 86
2019-09-24 07:00:00 13.3 3 Oeste 5 Oeste 0 -- -- 84
2019-09-24 06:00:00 14 2 Nordeste 9 Noroeste 0 -- -- 83
2019-09-24 05:00:00 14.4 3 Norte 6 Oeste 0 -- -- 78
2019-09-24 04:00:00 14.7 2 Noroeste 7 Noroeste 0 -- -- 77
2019-09-24 03:00:00 15.6 3 Noroeste 6 Sur 0 -- -- 74
2019-09-24 02:00:00 16.7 0 Calma 4 Oeste 0 -- -- 68
2019-09-24 01:00:00 17.8 2 Noroeste 5 Oeste 0 -- -- 61
2019-09-24 00:00:00 19.5 0 Calma 5 Sur 0 -- -- 56
2019-09-23 23:00:00 20.7 2 Sudoeste 6 Sur 0 -- -- 54
2019-09-23 22:00:00 21.4 2 Sudeste 8 Sur 0 -- -- 47
2019-09-23 21:00:00 22.6 0 Calma 5 Norte 0 -- -- 44
2019-09-23 20:00:00 23.9 3 Norte 13 Noroeste 0 -- -- 40
2019-09-23 19:00:00 25.3 8 Noroeste 19 Noroeste 0 -- -- 36
2019-09-23 18:00:00 26.7 12 Oeste 25 Oeste 0 -- -- 32
2019-09-23 17:00:00 27.2 13 Oeste 30 Oeste 0 -- -- 29
2019-09-23 16:00:00 27.4 16 Oeste 32 Oeste 0 -- -- 30
2019-09-23 15:00:00 27.1 17 Oeste 35 Oeste 0 -- -- 31
2019-09-23 14:00:00 26.4 11 Sudoeste 21 Oeste 0 -- -- 36
2019-09-23 13:00:00 24.2 5 Oeste 12 Oeste 0 -- -- 46
2019-09-23 12:00:00 22.1 3 Norte 12 Oeste 0 -- -- 52
2019-09-23 11:00:00 19.7 3 Norte 8 Sudeste 0 -- -- 58
2019-09-23 10:00:00 16.8 2 Norte 5 Nordeste 0 -- -- 68
2019-09-23 09:00:00 15 0 Calma 4 Oeste 0 -- -- 72
2019-09-23 08:00:00 14.5 3 Oeste 4 Oeste 0 -- -- 71
2019-09-23 07:00:00 15.4 2 Noroeste 9 Sudoeste 0 -- -- 67
2019-09-23 06:00:00 16.3 4 Noroeste 18 Sudoeste 0 -- -- 62
2019-09-23 05:00:00 17.1 2 Norte 25 Sudoeste 0 -- -- 60
2019-09-23 04:00:00 16.9 0 Calma 6 Sudoeste 0 -- -- 58
2019-09-23 03:00:00 17.9 0 Calma 14 Sudoeste 0 -- -- 55
2019-09-23 02:00:00 17.9 4 Sudoeste 7 Oeste 0 -- -- 57
2019-09-23 01:00:00 18.8 3 Oeste 14 Noroeste 0 -- -- 55
2019-09-23 00:00:00 19.9 11 Noroeste 23 Noroeste 0 -- -- 53
2019-09-22 23:00:00 20.8 13 Noroeste 18 Noroeste 0 -- -- 50
2019-09-22 22:00:00 22 13 Noroeste 20 Noroeste 0 -- -- 49
2019-09-22 21:00:00 22.5 9 Noroeste 23 Oeste 0 -- -- 50
2019-09-22 20:00:00 23.9 15 Noroeste 23 Oeste 0 -- -- 50
2019-09-22 19:00:00 24.9 8 Oeste 41 Oeste 0 -- -- 49
2019-09-22 18:00:00 26.2 28 Oeste 43 Oeste 0 -- -- 42
2019-09-22 17:00:00 28.8 27 Oeste 51 Oeste 0 -- -- 37
2019-09-22 16:00:00 29.5 22 Oeste 33 Oeste 0 -- -- 39
2019-09-22 15:00:00 27.2 18 Noroeste 32 Noroeste 0 -- -- 51
2019-09-22 14:00:00 27.9 9 Oeste 21 Oeste 0 -- -- 47
2019-09-22 13:00:00 27.4 6 Sudoeste 14 Sur 0 -- -- 52
2019-09-22 12:00:00 24.3 2 Sur 10 Sur 0 -- -- 69
2019-09-22 11:00:00 22.7 8 Sudeste 11 Sudeste 0 -- -- 76
2019-09-22 10:00:00 20.6 4 Sudeste 10 Oeste 0 -- -- 82
2019-09-22 09:00:00 18.8 2 Oeste 7 Sudeste 0 -- -- 88
2019-09-22 08:00:00 18.5 0 Calma 10 Sudeste 0 -- -- 87
2019-09-22 07:00:00 18.6 5 Este 22 Nordeste 0 -- -- 87
2019-09-22 06:00:00 19 15 Nordeste 22 Nordeste 0 -- -- 85
2019-09-22 05:00:00 19.3 13 Nordeste 22 Nordeste 0 -- -- 84
2019-09-22 04:00:00 19.6 12 Este 19 Este 0 -- -- 83
2019-09-22 03:00:00 19.9 13 Este 22 Este 0 -- -- 83
2019-09-22 02:00:00 20.7 11 Nordeste 23 Este 0 -- -- 81
2019-09-22 01:00:00 21.5 11 Sudeste 26 Sudeste 0 -- -- 81
2019-09-22 00:00:00 21.7 13 Sudeste 26 Sudeste 0 -- -- 81
2019-09-21 23:00:00 22.1 12 Sudeste 23 Sur 0 -- -- 79
2019-09-21 22:00:00 22.5 10 Sudeste 28 Sudeste 0 -- -- 77
2019-09-21 21:00:00 23.1 14 Sudeste 27 Sudeste 0 -- -- 76
2019-09-21 20:00:00 24.7 10 Sudeste 22 Este 0 -- -- 63
2019-09-21 19:00:00 25.9 14 Este 24 Nordeste 0 -- -- 54
2019-09-21 18:00:00 27.6 12 Este 22 Nordeste 0 -- -- 54
2019-09-21 17:00:00 28.5 9 Este 22 Sudeste 0 -- -- 51
2019-09-21 16:00:00 28.2 6 Sur 15 Sudoeste 0 -- -- 50
2019-09-21 15:00:00 27 6 Sur 15 Sur 0 -- -- 55
2019-09-21 14:00:00 25.6 5 Noroeste 12 Este 0 -- -- 60
2019-09-21 13:00:00 24.4 4 Este 16 Nordeste 0 -- -- 66
2019-09-21 12:00:00 22.7 10 Nordeste 21 Este 0 -- -- 77
2019-09-21 11:00:00 19.7 18 Nordeste 26 Nordeste 0 -- -- 88
2019-09-21 10:00:00 18.9 2 Sur 19 Nordeste 0 -- -- 91
2019-09-21 09:00:00 18.6 10 Nordeste 14 Este 0 -- -- 91
2019-09-21 08:00:00 18.4 8 Nordeste 25 Nordeste 1.8 -- -- 90
2019-09-21 07:00:00 19 8 Este 15 Nordeste 1.6 -- -- 87
2019-09-21 06:00:00 19.1 6 Nordeste 13 Este 0.2 -- -- 86
2019-09-21 05:00:00 19.6 4 Nordeste 13 Este 0 -- -- 81
2019-09-21 04:00:00 19.8 7 Este 12 Este 0 -- -- 79
2019-09-21 03:00:00 19.8 5 Este 15 Nordeste 0 -- -- 79
2019-09-21 02:00:00 20.1 7 Nordeste 15 Nordeste 0 -- -- 79
2019-09-21 01:00:00 20.2 0 Calma 8 Nordeste 0 -- -- 75
2019-09-21 00:00:00 20.9 3 Nordeste 10 Sudeste 0 -- -- 70
2019-09-20 23:00:00 21.4 6 Sudeste 22 Sudeste 0 -- -- 69
2019-09-20 22:00:00 22.1 13 Sudeste 28 Sudeste 0 -- -- 66
2019-09-20 21:00:00 22.7 14 Sudeste 30 Sudeste 0 -- -- 58
2019-09-20 20:00:00 23.8 21 Sudeste 35 Sudeste 0 -- -- 52
2019-09-20 19:00:00 24.8 19 Sudeste 42 Sudeste 0 -- -- 56
2019-09-20 18:00:00 26.1 24 Sur 42 Sur 0 -- -- 55
2019-09-20 17:00:00 27 19 Sudeste 36 Sudeste 0 -- -- 53
2019-09-20 16:00:00 28.2 18 Sudeste 32 Sudeste 0 -- -- 47
2019-09-20 15:00:00 28.2 16 Sudeste 33 Sur 0 -- -- 48
2019-09-20 14:00:00 28 17 Sudeste 29 Sudeste 0 -- -- 48
2019-09-20 13:00:00 27.7 11 Nordeste 26 Nordeste 0 -- -- 46
2019-09-20 12:00:00 25.6 11 Este 22 Este 0 -- -- 51
2019-09-20 11:00:00 22.7 7 Sudeste 21 Nordeste 0 -- -- 63
2019-09-20 10:00:00 20.2 9 Nordeste 15 Nordeste 0 -- -- 69
2019-09-20 09:00:00 17.7 3 Sudoeste 9 Este 0 -- -- 80
2019-09-20 08:00:00 17.5 4 Nordeste 11 Nordeste 0 -- -- 79
2019-09-20 07:00:00 17.9 4 Nordeste 21 Nordeste 0 -- -- 78
2019-09-20 06:00:00 17.8 3 Norte 9 Nordeste 0 -- -- 79
2019-09-20 05:00:00 18.4 4 Nordeste 13 Nordeste 0 -- -- 76
2019-09-20 04:00:00 19.2 12 Este 21 Nordeste 0 -- -- 73
2019-09-20 03:00:00 19.5 12 Nordeste 22 Este 0 -- -- 73
2019-09-20 02:00:00 19.9 11 Este 21 Nordeste 0 -- -- 72
2019-09-20 01:00:00 21.2 5 Este 13 Sudeste 0 -- -- 67
2019-09-20 00:00:00 21.5 6 Este 12 Este 0 -- -- 67
2019-09-19 23:00:00 22.3 9 Sudeste 22 Este 0 -- -- 65
2019-09-19 22:00:00 22.7 13 Sudeste 29 Sudeste 0 -- -- 65
2019-09-19 21:00:00 23.7 14 Sudeste 27 Sudeste 0 -- -- 60
2019-09-19 20:00:00 25 12 Sudeste 33 Sudeste 0 -- -- 54
2019-09-19 19:00:00 26.7 19 Sur 37 Sudeste 0 -- -- 48
2019-09-19 18:00:00 28.1 20 Sudeste 39 Sudeste 0 -- -- 48
2019-09-19 17:00:00 31.4 5 Noroeste 17 Nordeste 0 -- -- 38
2019-09-19 16:00:00 30.8 5 Sudoeste 15 Noroeste 0 -- -- 39
2019-09-19 15:00:00 29.5 5 Nordeste 19 Nordeste 0 -- -- 40
2019-09-19 14:00:00 28.4 4 Norte 10 Norte 0 -- -- 45
2019-09-19 13:00:00 26.5 5 Sudoeste 10 Sudoeste 0 -- -- 52
2019-09-19 12:00:00 22.5 2 Sudoeste 9 Sudoeste 0 -- -- 66
2019-09-19 11:00:00 21.3 6 Sudoeste 9 Sudoeste 0 -- -- 72
2019-09-19 10:00:00 20.6 2 Noroeste 5 Sur 0 -- -- 71
2019-09-19 09:00:00 18.7 4 Sudoeste 6 Sudoeste 0 -- -- 77
2019-09-19 08:00:00 17.7 2 Nordeste 4 Sudoeste 0 -- -- 80
2019-09-19 07:00:00 17.9 3 Sur 6 Sur 0 -- -- 79
2019-09-19 06:00:00 18.3 0 Calma 4 Norte 0 -- -- 76
2019-09-19 05:00:00 18.6 2 Norte 7 Oeste 0 -- -- 75
2019-09-19 04:00:00 18.9 3 Noroeste 5 Noroeste 0 -- -- 75
2019-09-19 03:00:00 19.9 4 Noroeste 9 Sudoeste 0 -- -- 70
2019-09-19 02:00:00 21.6 2 Sur 14 Nordeste 0 -- -- 62
2019-09-19 01:00:00 22.1 6 Nordeste 12 Nordeste 0 -- -- 57
2019-09-19 00:00:00 22.5 6 Oeste 27 Nordeste 0 -- -- 57
2019-09-18 23:00:00 24.4 6 Este 28 Nordeste 0 -- -- 46
2019-09-18 22:00:00 25.6 0 Calma 13 Sudoeste 0 -- -- 42
2019-09-18 21:00:00 25.6 5 Sudoeste 20 Noroeste 0 -- -- 44
2019-09-18 20:00:00 26.4 17 Noroeste 26 Noroeste 0 -- -- 44
2019-09-18 19:00:00 27.9 18 Sudoeste 47 Sudoeste 0 -- -- 37
2019-09-18 18:00:00 31 8 Sur 15 Sur 0 -- -- 34
2019-09-18 17:00:00 31.3 6 Sudeste 15 Sudoeste 0 -- -- 34
2019-09-18 16:00:00 31.9 6 Oeste 19 Sudoeste 0 -- -- 37
2019-09-18 15:00:00 30.7 6 Sudeste 14 Sur 0 -- -- 40
2019-09-18 14:00:00 29 5 Oeste 13 Nordeste 0 -- -- 43
2019-09-18 13:00:00 28.1 5 Nordeste 11 Nordeste 0 -- -- 45
2019-09-18 12:00:00 26.4 7 Norte 13 Norte 0 -- -- 48
2019-09-18 11:00:00 24.2 5 Sur 9 Sudoeste 0 -- -- 55
2019-09-18 10:00:00 21.8 3 Nordeste 5 Nordeste 0 -- -- 60
2019-09-18 09:00:00 18 4 Oeste 7 Sur 0 -- -- 77
2019-09-18 08:00:00 17.6 0 Calma 6 Sudoeste 0 -- -- 75
2019-09-18 07:00:00 18.8 0 Calma 4 Nordeste 0 -- -- 70
2019-09-18 06:00:00 19.5 4 Sur 6 Sur 0 -- -- 69
2019-09-18 05:00:00 19.3 2 Norte 7 Nordeste 0 -- -- 69
2019-09-18 04:00:00 20 5 Sudoeste 18 Nordeste 0 -- -- 66
2019-09-18 03:00:00 22.3 16 Nordeste 20 Nordeste 0 -- -- 56
2019-09-18 02:00:00 23.5 6 Nordeste 15 Sudoeste 0 -- -- 51
2019-09-18 01:00:00 25.1 4 Sudoeste 25 Sur 0 -- -- 47
2019-09-18 00:00:00 25.1 11 Sudeste 17 Sur 0 -- -- 47
2019-09-17 23:00:00 25.2 11 Sudeste 20 Sudeste 0 -- -- 47
2019-09-17 22:00:00 25.6 11 Sudeste 24 Sudeste 0 -- -- 49
2019-09-17 21:00:00 26.7 12 Sudeste 25 Sudeste 0 -- -- 47
2019-09-15 18:00:00 29.8 13 Sudeste 24 Sudeste 0 -- -- 44
2019-09-15 17:00:00 29.7 9 Sur 16 Sur 0 -- -- 38
2019-09-15 16:00:00 31 7 Nordeste 27 Nordeste 0 -- -- 34
2019-09-15 15:00:00 30.3 14 Nordeste 20 Nordeste 0 -- -- 33
2019-09-15 14:00:00 29.2 9 Nordeste 19 Nordeste 0 -- -- 35
2019-09-15 13:00:00 27.5 6 Norte 15 Este 0 -- -- 38
2019-09-15 12:00:00 25.5 4 Este 10 Nordeste 0 -- -- 41
2019-09-15 11:00:00 22.4 2 Este 10 Sudoeste 0 -- -- 64
2019-09-15 10:00:00 19.7 6 Noroeste 9 Noroeste 0 -- -- 77
2019-09-15 09:00:00 17.7 2 Sudoeste 5 Oeste 0 -- -- 84
2019-09-15 08:00:00 17.5 0 Calma 4 Sur 0 -- -- 82
2019-09-15 07:00:00 17.4 3 Oeste 14 Nordeste 0 -- -- 83
2019-09-15 06:00:00 18.2 4 Norte 7 Nordeste 0 -- -- 79
2019-09-15 05:00:00 19 2 Norte 9 Este 0 -- -- 77
2019-09-15 04:00:00 19.6 2 Sudoeste 9 Nordeste 0 -- -- 78
2019-09-15 03:00:00 20.4 8 Nordeste 13 Nordeste 0 -- -- 71
2019-09-15 02:00:00 20.8 0 Calma 10 Este 0 -- -- 75
2019-09-15 01:00:00 21.5 0 Calma 14 Norte 0 -- -- 68
2019-09-15 00:00:00 22.3 6 Nordeste 13 Nordeste 0 -- -- 61